sensor_id;sensor_type;location;lat;lon;timestamp;pressure;altitude;pressure_sealevel;temperature;humidity
5146;BME280;2591;48.144;15.152;2022-10-23T00:00:40;76335.13;;;-144.65;100.00
5146;BME280;2591;48.144;15.152;2022-10-23T00:03:08;76331.03;;;-144.65;100.00
5146;BME280;2591;48.144;15.152;2022-10-23T00:05:38;76326.97;;;-144.65;100.00
5146;BME280;2591;48.144;15.152;2022-10-23T00:08:07;76339.19;;;-144.65;100.00
5146;BME280;2591;48.144;15.152;2022-10-23T00:10:39;76347.34;;;-144.65;100.00
5146;BME280;2591;48.144;15.152;2022-10-23T00:13:08;76351.44;;;-144.65;100.00
5146;BME280;2591;48.144;15.152;2022-10-23T00:15:36;76335.13;;;-144.65;100.00
5146;BME280;2591;48.144;15.152;2022-10-23T00:18:04;76343.28;;;-144.65;100.00
5146;BME280;2591;48.144;15.152;2022-10-23T00:20:32;76343.28;;;-144.65;100.00
5146;BME280;2591;48.144;15.152;2022-10-23T00:23:00;76355.50;;;-144.65;100.00
5146;BME280;2591;48.144;15.152;2022-10-23T00:25:28;76371.81;;;-144.65;100.00
5146;BME280;2591;48.144;15.152;2022-10-23T00:27:57;76392.22;;;-144.65;100.00
5146;BME280;2591;48.144;15.152;2022-10-23T00:30:25;76392.22;;;-144.65;100.00
5146;BME280;2591;48.144;15.152;2022-10-23T00:32:52;76400.38;;;-144.65;100.00
5146;BME280;2591;48.144;15.152;2022-10-23T00:35:20;76412.59;;;-144.65;100.00
5146;BME280;2591;48.144;15.152;2022-10-23T00:37:48;76404.44;;;-144.65;100.00
5146;BME280;2591;48.144;15.152;2022-10-23T00:40:16;76404.44;;;-144.65;100.00
5146;BME280;2591;48.144;15.152;2022-10-23T00:42:44;76412.59;;;-144.65;100.00
5146;BME280;2591;48.144;15.152;2022-10-23T00:45:20;76404.44;;;-144.65;100.00
5146;BME280;2591;48.144;15.152;2022-10-23T00:47:49;76408.53;;;-144.65;100.00
5146;BME280;2591;48.144;15.152;2022-10-23T00:50:18;76420.75;;;-144.65;100.00
5146;BME280;2591;48.144;15.152;2022-10-23T00:52:48;76424.84;;;-144.65;100.00
5146;BME280;2591;48.144;15.152;2022-10-23T00:55:18;76432.97;;;-144.65;100.00
5146;BME280;2591;48.144;15.152;2022-10-23T00:57:48;76439.09;;;-144.65;100.00
5146;BME280;2591;48.144;15.152;2022-10-23T01:00:21;76432.97;;;-144.65;100.00
5146;BME280;2591;48.144;15.152;2022-10-23T01:02:51;76428.91;;;-144.65;100.00
5146;BME280;2591;48.144;15.152;2022-10-23T01:05:23;76420.75;;;-144.65;100.00
5146;BME280;2591;48.144;15.152;2022-10-23T01:07:54;76420.75;;;-144.65;100.00
5146;BME280;2591;48.144;15.152;2022-10-23T01:10:30;76414.63;;;-144.65;100.00
5146;BME280;2591;48.144;15.152;2022-10-23T01:13:04;76420.75;;;-144.65;100.00
5146;BME280;2591;48.144;15.152;2022-10-23T01:15:41;76435.03;;;-144.65;100.00
5146;BME280;2591;48.144;15.152;2022-10-23T01:18:16;76426.88;;;-144.65;100.00
5146;BME280;2591;48.144;15.152;2022-10-23T01:20:51;76420.75;;;-144.65;100.00
5146;BME280;2591;48.144;15.152;2022-10-23T01:23:39;76408.53;;;-144.65;100.00
5146;BME280;2591;48.144;15.152;2022-10-23T01:26:35;76412.59;;;-144.65;100.00
5146;BME280;2591;48.144;15.152;2022-10-23T01:29:09;76410.56;;;-144.65;100.00
5146;BME280;2591;48.144;15.152;2022-10-23T01:31:44;76392.22;;;-144.65;100.00
5146;BME280;2591;48.144;15.152;2022-10-23T01:34:17;76379.97;;;-144.65;100.00
5146;BME280;2591;48.144;15.152;2022-10-23T01:36:48;76369.78;;;-144.65;100.00
5146;BME280;2591;48.144;15.152;2022-10-23T01:39:19;76377.94;;;-144.65;100.00
5146;BME280;2591;48.144;15.152;2022-10-23T01:41:52;76388.13;;;-144.65;100.00
5146;BME280;2591;48.144;15.152;2022-10-23T01:44:25;76396.28;;;-144.65;100.00
5146;BME280;2591;48.144;15.152;2022-10-23T01:46:54;76406.47;;;-144.65;100.00
5146;BME280;2591;48.144;15.152;2022-10-23T01:49:24;76408.53;;;-144.65;100.00
5146;BME280;2591;48.144;15.152;2022-10-23T01:51:54;76406.47;;;-144.65;100.00
5146;BME280;2591;48.144;15.152;2022-10-23T01:54:25;76420.75;;;-144.65;100.00
5146;BME280;2591;48.144;15.152;2022-10-23T01:56:56;76430.94;;;-144.65;100.00
5146;BME280;2591;48.144;15.152;2022-10-23T01:59:29;76424.84;;;-144.65;100.00
5146;BME280;2591;48.144;15.152;2022-10-23T02:02:00;76420.75;;;-144.65;100.00
5146;BME280;2591;48.144;15.152;2022-10-23T02:04:33;76416.69;;;-144.65;100.00
5146;BME280;2591;48.144;15.152;2022-10-23T02:07:03;76410.56;;;-144.65;100.00
5146;BME280;2591;48.144;15.152;2022-10-23T02:09:31;76400.38;;;-144.65;100.00
5146;BME280;2591;48.144;15.152;2022-10-23T02:12:04;76416.69;;;-144.65;100.00
5146;BME280;2591;48.144;15.152;2022-10-23T02:14:43;76428.91;;;-144.65;100.00
5146;BME280;2591;48.144;15.152;2022-10-23T02:17:14;76428.91;;;-144.65;100.00
5146;BME280;2591;48.144;15.152;2022-10-23T02:19:50;76428.91;;;-144.65;100.00
5146;BME280;2591;48.144;15.152;2022-10-23T02:22:23;76424.84;;;-144.65;100.00
5146;BME280;2591;48.144;15.152;2022-10-23T02:24:54;76424.84;;;-144.65;100.00
5146;BME280;2591;48.144;15.152;2022-10-23T02:27:29;76432.97;;;-144.65;100.00
5146;BME280;2591;48.144;15.152;2022-10-23T02:30:03;76447.25;;;-144.65;100.00
5146;BME280;2591;48.144;15.152;2022-10-23T02:32:32;76445.22;;;-144.65;100.00
5146;BME280;2591;48.144;15.152;2022-10-23T02:35:01;76441.16;;;-144.65;100.00
5146;BME280;2591;48.144;15.152;2022-10-23T02:37:29;76439.09;;;-144.65;100.00
5146;BME280;2591;48.144;15.152;2022-10-23T02:39:57;76437.06;;;-144.65;100.00
5146;BME280;2591;48.144;15.152;2022-10-23T02:42:27;76426.88;;;-144.65;100.00
5146;BME280;2591;48.144;15.152;2022-10-23T02:45:03;76420.75;;;-144.65;100.00
5146;BME280;2591;48.144;15.152;2022-10-23T02:47:47;76408.53;;;-144.65;100.00
5146;BME280;2591;48.144;15.152;2022-10-23T02:50:23;76400.38;;;-144.65;100.00
5146;BME280;2591;48.144;15.152;2022-10-23T02:52:58;76394.25;;;-144.65;100.00
5146;BME280;2591;48.144;15.152;2022-10-23T02:55:38;76375.91;;;-144.65;100.00
5146;BME280;2591;48.144;15.152;2022-10-23T02:58:18;76375.91;;;-144.65;100.00
5146;BME280;2591;48.144;15.152;2022-10-23T03:00:51;76365.69;;;-144.65;100.00
5146;BME280;2591;48.144;15.152;2022-10-23T03:03:24;76367.75;;;-144.65;100.00
5146;BME280;2591;48.144;15.152;2022-10-23T03:05:53;76355.50;;;-144.65;100.00
5146;BME280;2591;48.144;15.152;2022-10-23T03:08:22;76343.28;;;-144.65;100.00
5146;BME280;2591;48.144;15.152;2022-10-23T03:10:50;76341.22;;;-144.65;100.00
5146;BME280;2591;48.144;15.152;2022-10-23T03:13:18;76331.03;;;-144.65;100.00
5146;BME280;2591;48.144;15.152;2022-10-23T03:15:46;76331.03;;;-144.65;100.00
5146;BME280;2591;48.144;15.152;2022-10-23T03:18:15;76333.06;;;-144.65;100.00
5146;BME280;2591;48.144;15.152;2022-10-23T03:20:43;76302.50;;;-144.65;100.00
5146;BME280;2591;48.144;15.152;2022-10-23T03:23:12;76312.69;;;-144.65;100.00
5146;BME280;2591;48.144;15.152;2022-10-23T03:25:40;76312.69;;;-144.65;100.00
5146;BME280;2591;48.144;15.152;2022-10-23T03:28:08;76322.88;;;-144.65;100.00
5146;BME280;2591;48.144;15.152;2022-10-23T03:30:36;76324.91;;;-144.65;100.00
5146;BME280;2591;48.144;15.152;2022-10-23T03:33:03;76326.97;;;-144.65;100.00
5146;BME280;2591;48.144;15.152;2022-10-23T03:35:33;76322.88;;;-144.65;100.00
5146;BME280;2591;48.144;15.152;2022-10-23T03:38:00;76320.84;;;-144.65;100.00
5146;BME280;2591;48.144;15.152;2022-10-23T03:40:28;76310.66;;;-144.65;100.00
5146;BME280;2591;48.144;15.152;2022-10-23T03:42:56;76302.50;;;-144.65;100.00
5146;BME280;2591;48.144;15.152;2022-10-23T03:45:24;76304.53;;;-144.65;100.00
5146;BME280;2591;48.144;15.152;2022-10-23T03:47:52;76306.56;;;-144.65;100.00
5146;BME280;2591;48.144;15.152;2022-10-23T03:50:20;76310.66;;;-144.65;100.00
5146;BME280;2591;48.144;15.152;2022-10-23T03:52:49;76308.59;;;-144.65;100.00
5146;BME280;2591;48.144;15.152;2022-10-23T03:55:17;76302.50;;;-144.65;100.00
5146;BME280;2591;48.144;15.152;2022-10-23T03:57:45;76294.34;;;-144.65;100.00
5146;BME280;2591;48.144;15.152;2022-10-23T04:00:13;76294.34;;;-144.65;100.00
5146;BME280;2591;48.144;15.152;2022-10-23T04:02:42;76296.38;;;-144.65;100.00
5146;BME280;2591;48.144;15.152;2022-10-23T04:05:10;76310.66;;;-144.65;100.00
5146;BME280;2591;48.144;15.152;2022-10-23T04:07:38;76322.88;;;-144.65;100.00
5146;BME280;2591;48.144;15.152;2022-10-23T04:10:08;76320.84;;;-144.65;100.00
5146;BME280;2591;48.144;15.152;2022-10-23T04:12:36;76322.88;;;-144.65;100.00
5146;BME280;2591;48.144;15.152;2022-10-23T04:15:05;76329.00;;;-144.65;100.00
5146;BME280;2591;48.144;15.152;2022-10-23T04:17:33;76335.13;;;-144.65;100.00
5146;BME280;2591;48.144;15.152;2022-10-23T04:20:01;76343.28;;;-144.65;100.00
5146;BME280;2591;48.144;15.152;2022-10-23T04:22:29;76339.19;;;-144.65;100.00
5146;BME280;2591;48.144;15.152;2022-10-23T04:24:57;76335.13;;;-144.65;100.00
5146;BME280;2591;48.144;15.152;2022-10-23T04:27:26;76331.03;;;-144.65;100.00
5146;BME280;2591;48.144;15.152;2022-10-23T04:29:54;76329.00;;;-144.65;100.00
5146;BME280;2591;48.144;15.152;2022-10-23T04:32:24;76314.72;;;-144.65;100.00
5146;BME280;2591;48.144;15.152;2022-10-23T04:34:52;76316.75;;;-144.65;100.00
5146;BME280;2591;48.144;15.152;2022-10-23T04:37:20;76308.59;;;-144.65;100.00
5146;BME280;2591;48.144;15.152;2022-10-23T04:39:48;76304.53;;;-144.65;100.00
5146;BME280;2591;48.144;15.152;2022-10-23T04:42:16;76310.66;;;-144.65;100.00
5146;BME280;2591;48.144;15.152;2022-10-23T04:44:45;76314.72;;;-144.65;100.00
5146;BME280;2591;48.144;15.152;2022-10-23T04:47:13;76302.50;;;-144.65;100.00
5146;BME280;2591;48.144;15.152;2022-10-23T04:49:40;76318.81;;;-144.65;100.00
5146;BME280;2591;48.144;15.152;2022-10-23T04:52:08;76308.59;;;-144.65;100.00
5146;BME280;2591;48.144;15.152;2022-10-23T04:54:37;76318.81;;;-144.65;100.00
5146;BME280;2591;48.144;15.152;2022-10-23T04:57:05;76326.97;;;-144.65;100.00
5146;BME280;2591;48.144;15.152;2022-10-23T04:59:33;76326.97;;;-144.65;100.00
5146;BME280;2591;48.144;15.152;2022-10-23T05:02:02;76326.97;;;-144.65;100.00
5146;BME280;2591;48.144;15.152;2022-10-23T05:04:30;76331.03;;;-144.65;100.00
5146;BME280;2591;48.144;15.152;2022-10-23T05:06:58;76329.00;;;-144.65;100.00
5146;BME280;2591;48.144;15.152;2022-10-23T05:09:26;76320.84;;;-144.65;100.00
5146;BME280;2591;48.144;15.152;2022-10-23T05:11:53;76318.81;;;-144.65;100.00
5146;BME280;2591;48.144;15.152;2022-10-23T05:14:21;76316.75;;;-144.65;100.00
5146;BME280;2591;48.144;15.152;2022-10-23T05:16:53;76310.66;;;-144.65;100.00
5146;BME280;2591;48.144;15.152;2022-10-23T05:19:26;76306.56;;;-144.65;100.00
5146;BME280;2591;48.144;15.152;2022-10-23T05:21:56;76316.75;;;-144.65;100.00
5146;BME280;2591;48.144;15.152;2022-10-23T05:24:25;76312.69;;;-144.65;100.00
5146;BME280;2591;48.144;15.152;2022-10-23T05:26:53;76302.50;;;-144.65;100.00
5146;BME280;2591;48.144;15.152;2022-10-23T05:29:21;76300.47;;;-144.65;100.00
5146;BME280;2591;48.144;15.152;2022-10-23T05:31:51;76308.59;;;-144.65;100.00
5146;BME280;2591;48.144;15.152;2022-10-23T05:34:24;76304.53;;;-144.65;100.00
5146;BME280;2591;48.144;15.152;2022-10-23T05:36:53;76290.25;;;-144.65;100.00
5146;BME280;2591;48.144;15.152;2022-10-23T05:39:22;76290.25;;;-144.65;100.00
5146;BME280;2591;48.144;15.152;2022-10-23T05:41:50;76290.25;;;-144.65;100.00
5146;BME280;2591;48.144;15.152;2022-10-23T05:44:17;76304.53;;;-144.65;100.00
5146;BME280;2591;48.144;15.152;2022-10-23T05:46:45;76298.41;;;-144.65;100.00
5146;BME280;2591;48.144;15.152;2022-10-23T05:49:13;76282.09;;;-144.65;100.00
5146;BME280;2591;48.144;15.152;2022-10-23T05:51:42;76269.88;;;-144.65;100.00
5146;BME280;2591;48.144;15.152;2022-10-23T05:54:10;76265.78;;;-144.65;100.00
5146;BME280;2591;48.144;15.152;2022-10-23T05:56:39;76253.56;;;-144.65;100.00
5146;BME280;2591;48.144;15.152;2022-10-23T05:59:07;76249.47;;;-144.65;100.00
5146;BME280;2591;48.144;15.152;2022-10-23T06:01:35;76257.63;;;-144.65;100.00
5146;BME280;2591;48.144;15.152;2022-10-23T06:04:04;76243.38;;;-144.65;100.00
5146;BME280;2591;48.144;15.152;2022-10-23T06:06:32;76235.22;;;-144.65;100.00
5146;BME280;2591;48.144;15.152;2022-10-23T06:09:01;76235.22;;;-144.65;100.00
5146;BME280;2591;48.144;15.152;2022-10-23T06:11:29;76233.16;;;-144.65;100.00
5146;BME280;2591;48.144;15.152;2022-10-23T06:13:57;76212.78;;;-144.65;100.00
5146;BME280;2591;48.144;15.152;2022-10-23T06:16:26;76212.78;;;-144.65;100.00
5146;BME280;2591;48.144;15.152;2022-10-23T06:18:54;76206.66;;;-144.65;100.00
5146;BME280;2591;48.144;15.152;2022-10-23T06:21:23;76210.75;;;-144.65;100.00
5146;BME280;2591;48.144;15.152;2022-10-23T06:23:51;76208.69;;;-144.65;100.00
5146;BME280;2591;48.144;15.152;2022-10-23T06:26:20;76192.41;;;-144.65;100.00
5146;BME280;2591;48.144;15.152;2022-10-23T06:28:48;76178.13;;;-144.65;100.00
5146;BME280;2591;48.144;15.152;2022-10-23T06:31:16;76172.00;;;-144.65;100.00
5146;BME280;2591;48.144;15.152;2022-10-23T06:33:45;76159.78;;;-144.65;100.00
5146;BME280;2591;48.144;15.152;2022-10-23T06:36:13;76161.81;;;-144.65;100.00
5146;BME280;2591;48.144;15.152;2022-10-23T06:38:41;76159.78;;;-144.65;100.00
5146;BME280;2591;48.144;15.152;2022-10-23T06:41:12;76157.72;;;-144.65;100.00
5146;BME280;2591;48.144;15.152;2022-10-23T06:43:42;76153.66;;;-144.65;100.00
5146;BME280;2591;48.144;15.152;2022-10-23T06:46:10;76151.63;;;-144.65;100.00
5146;BME280;2591;48.144;15.152;2022-10-23T06:48:39;76125.13;;;-144.65;100.00
5146;BME280;2591;48.144;15.152;2022-10-23T06:51:10;76112.88;;;-144.65;100.00
5146;BME280;2591;48.144;15.152;2022-10-23T06:53:38;76112.88;;;-144.65;100.00
5146;BME280;2591;48.144;15.152;2022-10-23T06:56:09;76108.81;;;-144.65;100.00
5146;BME280;2591;48.144;15.152;2022-10-23T06:58:39;76104.72;;;-144.65;100.00
5146;BME280;2591;48.144;15.152;2022-10-23T07:01:11;76096.56;;;-144.65;100.00
5146;BME280;2591;48.144;15.152;2022-10-23T07:03:39;76078.22;;;-144.65;100.00
5146;BME280;2591;48.144;15.152;2022-10-23T07:06:08;76076.19;;;-144.65;100.00
5146;BME280;2591;48.144;15.152;2022-10-23T07:08:37;76063.94;;;-144.65;100.00
5146;BME280;2591;48.144;15.152;2022-10-23T07:11:07;76049.69;;;-144.65;100.00
5146;BME280;2591;48.144;15.152;2022-10-23T07:13:37;76047.63;;;-144.65;100.00
5146;BME280;2591;48.144;15.152;2022-10-23T07:16:11;76021.13;;;-144.65;100.00
5146;BME280;2591;48.144;15.152;2022-10-23T07:18:40;76017.06;;;-144.65;100.00
5146;BME280;2591;48.144;15.152;2022-10-23T07:21:09;76015.03;;;-144.65;100.00
5146;BME280;2591;48.144;15.152;2022-10-23T07:23:37;76012.97;;;-144.65;100.00
5146;BME280;2591;48.144;15.152;2022-10-23T07:26:06;76021.13;;;-144.65;100.00
5146;BME280;2591;48.144;15.152;2022-10-23T07:28:35;76025.22;;;-144.65;100.00
5146;BME280;2591;48.144;15.152;2022-10-23T07:31:04;76025.22;;;-144.65;100.00
5146;BME280;2591;48.144;15.152;2022-10-23T07:33:35;76021.13;;;-144.65;100.00
5146;BME280;2591;48.144;15.152;2022-10-23T07:36:04;76004.81;;;-144.65;100.00
5146;BME280;2591;48.144;15.152;2022-10-23T07:38:33;75994.63;;;-144.65;100.00
5146;BME280;2591;48.144;15.152;2022-10-23T07:41:03;75992.59;;;-144.65;100.00
5146;BME280;2591;48.144;15.152;2022-10-23T07:43:37;75988.50;;;-144.65;100.00
5146;BME280;2591;48.144;15.152;2022-10-23T07:46:05;75978.31;;;-144.65;100.00
5146;BME280;2591;48.144;15.152;2022-10-23T07:48:36;75980.34;;;-144.65;100.00
5146;BME280;2591;48.144;15.152;2022-10-23T07:51:06;75976.28;;;-144.65;100.00
5146;BME280;2591;48.144;15.152;2022-10-23T07:53:37;75976.28;;;-144.65;100.00
5146;BME280;2591;48.144;15.152;2022-10-23T07:56:11;75964.06;;;-144.65;100.00
5146;BME280;2591;48.144;15.152;2022-10-23T07:58:40;75970.16;;;-144.65;100.00
5146;BME280;2591;48.144;15.152;2022-10-23T08:01:14;75996.66;;;-144.65;100.00
5146;BME280;2591;48.144;15.152;2022-10-23T08:03:45;76004.81;;;-144.65;100.00
5146;BME280;2591;48.144;15.152;2022-10-23T08:06:14;75996.66;;;-144.65;100.00
5146;BME280;2591;48.144;15.152;2022-10-23T08:08:51;75984.44;;;-144.65;100.00
5146;BME280;2591;48.144;15.152;2022-10-23T08:11:22;75959.97;;;-144.65;100.00
5146;BME280;2591;48.144;15.152;2022-10-23T08:13:54;75931.44;;;-144.65;100.00
5146;BME280;2591;48.144;15.152;2022-10-23T08:16:23;75911.03;;;-144.65;100.00
5146;BME280;2591;48.144;15.152;2022-10-23T08:18:53;75898.81;;;-144.65;100.00
5146;BME280;2591;48.144;15.152;2022-10-23T08:21:22;75886.56;;;-144.65;100.00
5146;BME280;2591;48.144;15.152;2022-10-23T08:23:53;75845.81;;;-144.65;100.00
5146;BME280;2591;48.144;15.152;2022-10-23T08:26:22;75807.06;;;-144.65;100.00
5146;BME280;2591;48.144;15.152;2022-10-23T08:28:51;75786.69;;;-144.65;100.00
5146;BME280;2591;48.144;15.152;2022-10-23T08:31:20;75780.56;;;-144.65;100.00
5146;BME280;2591;48.144;15.152;2022-10-23T08:33:49;75788.72;;;-144.65;100.00
5146;BME280;2591;48.144;15.152;2022-10-23T08:36:19;75796.88;;;-144.65;100.00
5146;BME280;2591;48.144;15.152;2022-10-23T08:38:48;75776.50;;;-144.65;100.00
5146;BME280;2591;48.144;15.152;2022-10-23T08:41:28;75756.09;;;-144.65;100.00
5146;BME280;2591;48.144;15.152;2022-10-23T08:44:03;75754.06;;;-144.65;100.00
5146;BME280;2591;48.144;15.152;2022-10-23T08:46:37;75756.09;;;-144.65;100.00
5146;BME280;2591;48.144;15.152;2022-10-23T08:49:17;75758.16;;;-144.65;100.00
5146;BME280;2591;48.144;15.152;2022-10-23T08:51:50;75756.09;;;-144.65;100.00
5146;BME280;2591;48.144;15.152;2022-10-23T08:54:21;75782.59;;;-144.65;100.00
5146;BME280;2591;48.144;15.152;2022-10-23T08:56:56;75788.72;;;-144.65;100.00
5146;BME280;2591;48.144;15.152;2022-10-23T08:59:28;75764.25;;;-144.65;100.00
5146;BME280;2591;48.144;15.152;2022-10-23T09:02:01;75743.88;;;-144.65;100.00
5146;BME280;2591;48.144;15.152;2022-10-23T09:04:31;75747.94;;;-144.65;100.00
5146;BME280;2591;48.144;15.152;2022-10-23T09:07:07;75758.16;;;-144.65;100.00
5146;BME280;2591;48.144;15.152;2022-10-23T09:09:57;75766.31;;;-144.65;100.00
5146;BME280;2591;48.144;15.152;2022-10-23T09:12:31;75758.16;;;-144.65;100.00
5146;BME280;2591;48.144;15.152;2022-10-23T09:15:11;75750.00;;;-144.65;100.00
5146;BME280;2591;48.144;15.152;2022-10-23T09:17:42;75764.25;;;-144.65;100.00
5146;BME280;2591;48.144;15.152;2022-10-23T09:20:15;75735.72;;;-144.65;100.00
5146;BME280;2591;48.144;15.152;2022-10-23T09:22:46;75719.41;;;-144.65;100.00
5146;BME280;2591;48.144;15.152;2022-10-23T09:25:18;75711.25;;;-144.65;100.00
5146;BME280;2591;48.144;15.152;2022-10-23T09:27:47;75723.50;;;-144.65;100.00
5146;BME280;2591;48.144;15.152;2022-10-23T09:30:30;75731.66;;;-144.65;100.00
5146;BME280;2591;48.144;15.152;2022-10-23T09:32:58;75727.56;;;-144.65;100.00
5146;BME280;2591;48.144;15.152;2022-10-23T09:35:28;75723.50;;;-144.65;100.00
5146;BME280;2591;48.144;15.152;2022-10-23T09:37:58;75731.66;;;-144.65;100.00
5146;BME280;2591;48.144;15.152;2022-10-23T09:40:29;75760.19;;;-144.65;100.00
5146;BME280;2591;48.144;15.152;2022-10-23T09:43:00;75758.16;;;-144.65;100.00
5146;BME280;2591;48.144;15.152;2022-10-23T09:45:31;75743.88;;;-144.65;100.00
5146;BME280;2591;48.144;15.152;2022-10-23T09:48:05;75703.09;;;-144.65;100.00
5146;BME280;2591;48.144;15.152;2022-10-23T09:50:33;75711.25;;;-144.65;100.00
5146;BME280;2591;48.144;15.152;2022-10-23T09:53:02;75715.34;;;-144.65;100.00
5146;BME280;2591;48.144;15.152;2022-10-23T09:55:30;75713.28;;;-144.65;100.00
5146;BME280;2591;48.144;15.152;2022-10-23T09:57:58;75684.75;;;-144.65;100.00
5146;BME280;2591;48.144;15.152;2022-10-23T10:00:26;75692.91;;;-144.65;100.00
5146;BME280;2591;48.144;15.152;2022-10-23T10:02:57;75682.72;;;-144.65;100.00
5146;BME280;2591;48.144;15.152;2022-10-23T10:05:27;75664.38;;;-144.65;100.00
5146;BME280;2591;48.144;15.152;2022-10-23T10:07:59;75646.03;;;-144.65;100.00
5146;BME280;2591;48.144;15.152;2022-10-23T10:10:34;75617.50;;;-144.65;100.00
5146;BME280;2591;48.144;15.152;2022-10-23T10:13:12;75578.75;;;-144.65;100.00
5146;BME280;2591;48.144;15.152;2022-10-23T10:15:50;75568.56;;;-144.65;100.00
5146;BME280;2591;48.144;15.152;2022-10-23T10:18:25;75540.03;;;-144.65;100.00
5146;BME280;2591;48.144;15.152;2022-10-23T10:21:04;75529.84;;;-144.65;100.00
5146;BME280;2591;48.144;15.152;2022-10-23T10:23:41;75519.63;;;-144.65;100.00
5146;BME280;2591;48.144;15.152;2022-10-23T10:26:22;75476.84;;;-144.65;100.00
5146;BME280;2591;48.144;15.152;2022-10-23T10:29:02;75427.91;;;-144.65;100.00
5146;BME280;2591;48.144;15.152;2022-10-23T10:31:45;75389.19;;;-144.65;100.00
5146;BME280;2591;48.144;15.152;2022-10-23T10:34:25;75368.78;;;-144.65;100.00
5146;BME280;2591;48.144;15.152;2022-10-23T10:36:56;75385.09;;;-144.65;100.00
5146;BME280;2591;48.144;15.152;2022-10-23T10:39:35;75379.00;;;-144.65;100.00
5146;BME280;2591;48.144;15.152;2022-10-23T10:42:23;75362.69;;;-144.65;100.00
5146;BME280;2591;48.144;15.152;2022-10-23T10:45:16;75348.41;;;-144.65;100.00
5146;BME280;2591;48.144;15.152;2022-10-23T10:47:52;75344.34;;;-144.65;100.00
5146;BME280;2591;48.144;15.152;2022-10-23T10:50:28;75319.88;;;-144.65;100.00
5146;BME280;2591;48.144;15.152;2022-10-23T10:53:02;75297.47;;;-144.65;100.00
5146;BME280;2591;48.144;15.152;2022-10-23T10:55:37;75283.19;;;-144.65;98.83
5146;BME280;2591;48.144;15.152;2022-10-23T10:58:12;75264.84;;;-144.65;97.14
5146;BME280;2591;48.144;15.152;2022-10-23T11:00:43;75252.63;;;-144.65;97.50
5146;BME280;2591;48.144;15.152;2022-10-23T11:03:24;75236.31;;;-144.65;97.18
5146;BME280;2591;48.144;15.152;2022-10-23T11:05:56;75220.00;;;-144.65;98.24
5146;BME280;2591;48.144;15.152;2022-10-23T11:08:34;75201.66;;;-144.65;97.42
5146;BME280;2591;48.144;15.152;2022-10-23T11:11:24;75246.50;;;-144.65;96.07
5146;BME280;2591;48.144;15.152;2022-10-23T11:13:55;75230.19;;;-144.65;96.71
5146;BME280;2591;48.144;15.152;2022-10-23T11:16:26;75230.19;;;-144.65;94.23
5146;BME280;2591;48.144;15.152;2022-10-23T11:19:02;75244.47;;;-144.65;95.44
5146;BME280;2591;48.144;15.152;2022-10-23T11:21:39;75222.03;;;-144.65;95.30
5146;BME280;2591;48.144;15.152;2022-10-23T11:28:12;75213.88;;;-144.65;98.35
5146;BME280;2591;48.144;15.152;2022-10-23T11:30:59;75242.41;;;-144.65;98.32
5146;BME280;2591;48.144;15.152;2022-10-23T11:34:05;75220.00;;;-144.65;97.75
5146;BME280;2591;48.144;15.152;2022-10-23T11:36:42;75211.84;;;-144.65;97.88
5146;BME280;2591;48.144;15.152;2022-10-23T11:39:19;75205.72;;;-144.65;99.22
5146;BME280;2591;48.144;15.152;2022-10-23T11:41:50;75205.72;;;-144.65;95.50
5146;BME280;2591;48.144;15.152;2022-10-23T11:44:37;75199.63;;;-144.65;95.66
5146;BME280;2591;48.144;15.152;2022-10-23T11:47:29;75173.13;;;-144.65;95.56
5146;BME280;2591;48.144;15.152;2022-10-23T11:50:24;75191.47;;;-144.65;94.12
5146;BME280;2591;48.144;15.152;2022-10-23T11:52:58;75185.34;;;-144.65;94.36
5146;BME280;2591;48.144;15.152;2022-10-23T11:55:55;75203.69;;;-144.65;93.77
5146;BME280;2591;48.144;15.152;2022-10-23T11:58:25;75189.44;;;-144.65;95.66
5146;BME280;2591;48.144;15.152;2022-10-23T12:01:01;75181.28;;;-144.65;96.61
5146;BME280;2591;48.144;15.152;2022-10-23T12:03:48;75183.31;;;-144.65;97.61
5146;BME280;2591;48.144;15.152;2022-10-23T12:06:23;75181.28;;;-144.65;97.84
5146;BME280;2591;48.144;15.152;2022-10-23T12:08:54;75169.03;;;-144.65;97.86
5146;BME280;2591;48.144;15.152;2022-10-23T12:11:28;75169.03;;;-144.65;98.65
5146;BME280;2591;48.144;15.152;2022-10-23T12:14:23;75158.84;;;-144.65;97.13
5146;BME280;2591;48.144;15.152;2022-10-23T12:16:52;75142.53;;;-144.65;94.80
5146;BME280;2591;48.144;15.152;2022-10-23T12:19:23;75130.31;;;-144.65;95.24
5146;BME280;2591;48.144;15.152;2022-10-23T12:21:52;75126.25;;;-144.65;94.69
5146;BME280;2591;48.144;15.152;2022-10-23T12:24:34;75132.34;;;-144.65;94.15
5146;BME280;2591;48.144;15.152;2022-10-23T12:27:15;75132.34;;;-144.65;93.66
5146;BME280;2591;48.144;15.152;2022-10-23T12:29:53;75118.09;;;-144.65;94.12
5146;BME280;2591;48.144;15.152;2022-10-23T12:32:32;75116.06;;;-144.65;93.66
5146;BME280;2591;48.144;15.152;2022-10-23T12:35:22;75105.84;;;-144.65;94.09
5146;BME280;2591;48.144;15.152;2022-10-23T12:37:59;75105.84;;;-144.65;93.30
5146;BME280;2591;48.144;15.152;2022-10-23T12:40:29;75091.59;;;-144.65;94.23
5146;BME280;2591;48.144;15.152;2022-10-23T12:42:58;75091.59;;;-144.65;94.35
5146;BME280;2591;48.144;15.152;2022-10-23T12:45:29;75101.78;;;-144.65;94.37
5146;BME280;2591;48.144;15.152;2022-10-23T12:47:57;75083.44;;;-144.65;94.68
5146;BME280;2591;48.144;15.152;2022-10-23T12:50:28;75095.66;;;-144.65;95.12
5146;BME280;2591;48.144;15.152;2022-10-23T12:52:59;75085.47;;;-144.65;93.59
5146;BME280;2591;48.144;15.152;2022-10-23T12:55:29;75087.50;;;-144.65;93.37
5146;BME280;2591;48.144;15.152;2022-10-23T12:58:01;75099.75;;;-144.65;92.39
5146;BME280;2591;48.144;15.152;2022-10-23T13:00:29;75095.66;;;-144.65;94.29
5146;BME280;2591;48.144;15.152;2022-10-23T13:02:58;75097.72;;;-144.65;93.34
5146;BME280;2591;48.144;15.152;2022-10-23T13:05:28;75101.78;;;-144.65;94.62
5146;BME280;2591;48.144;15.152;2022-10-23T13:07:57;75103.81;;;-144.65;95.15